Time;durP1;ratioP1;P1;durP2;ratioP2;P2;SDS_P1;SDS_P2;PMS_P1;PMS_P2;Temp;Humidity;BMP_temperature;BMP_pressure;BME280_temperature;BME280_humidity;BME280_pressure;Samples;Min_cycle;Max_cycle;Signal;HPM_P1;HPM_P2
2023/07/05 00:00:36;;;;;;;14.20;12.77;;;;;;;19.40;100.00;95212.56;5000744;28;20068;-78
2023/07/05 00:03:02;;;;;;;14.82;13.48;;;;;;;19.37;100.00;95218.22;4985945;28;20459;-78
2023/07/05 00:05:27;;;;;;;13.93;12.80;;;;;;;19.58;100.00;95214.41;4967964;28;20022;-78
2023/07/05 00:07:53;;;;;;;15.18;13.85;;;;;;;19.62;100.00;95184.00;4987258;28;20080;-77
2023/07/05 00:10:18;;;;;;;14.40;13.10;;;;;;;19.44;100.00;95212.94;5001008;28;20027;-78
2023/07/05 00:12:45;;;;;;;15.75;14.20;;;;;;;19.32;100.00;95246.16;5001596;28;20026;-77
2023/07/05 00:15:11;;;;;;;15.65;14.23;;;;;;;19.27;100.00;95252.06;5001387;28;20458;-78
2023/07/05 00:17:36;;;;;;;15.88;14.50;;;;;;;19.18;100.00;95268.31;5000938;28;20030;-77
2023/07/05 00:20:04;;;;;;;15.23;14.13;;;;;;;19.24;100.00;95318.16;5003389;28;20035;-78
2023/07/05 00:22:30;;;;;;;15.45;14.20;;;;;;;19.08;100.00;95344.16;5003943;28;20068;-78
2023/07/05 00:24:56;;;;;;;15.95;14.65;;;;;;;19.13;100.00;95358.28;4990319;28;20050;-77
2023/07/05 00:27:24;;;;;;;15.20;14.00;;;;;;;19.08;100.00;95359.91;5004917;28;20038;-78
2023/07/05 00:29:53;;;;;;;16.48;15.00;;;;;;;19.11;100.00;95377.88;5005014;28;20031;-78
2023/07/05 00:32:21;;;;;;;16.25;14.77;;;;;;;19.00;100.00;95379.38;4989628;28;20034;-78
2023/07/05 00:34:47;;;;;;;16.38;14.57;;;;;;;19.08;100.00;95373.84;5004664;28;20026;-78
2023/07/05 00:37:13;;;;;;;16.88;15.43;;;;;;;18.98;100.00;95384.00;4990513;28;20038;-78
2023/07/05 00:39:38;;;;;;;16.30;15.05;;;;;;;18.93;100.00;95400.41;4987579;28;20058;-78
2023/07/05 00:42:05;;;;;;;16.70;15.27;;;;;;;18.95;100.00;95416.75;5005234;28;20038;-77
2023/07/05 00:44:30;;;;;;;15.73;14.52;;;;;;;18.96;100.00;95433.31;5003577;28;20054;-77
2023/07/05 00:47:26;;;;;;;16.00;14.35;;;;;;;18.97;100.00;95415.75;4989900;28;20033;-78
2023/07/05 00:49:51;;;;;;;16.38;14.88;;;;;;;18.91;100.00;95409.53;4986563;28;20487;-79
2023/07/05 00:52:17;;;;;;;18.00;15.95;;;;;;;18.94;100.00;95386.25;5003734;28;20034;-77
2023/07/05 00:54:49;;;;;;;18.02;16.48;;;;;;;18.97;100.00;95402.63;5005230;28;20030;-78
2023/07/05 00:57:18;;;;;;;16.73;15.38;;;;;;;19.02;100.00;95403.59;4988689;28;20118;-78
2023/07/05 00:59:55;;;;;;;18.73;16.98;;;;;;;19.01;100.00;95393.31;5004743;28;20026;-78
2023/07/05 01:02:21;;;;;;;18.52;17.05;;;;;;;18.88;100.00;95381.03;5003818;28;20138;-78
2023/07/05 01:04:47;;;;;;;17.15;15.65;;;;;;;18.80;100.00;95399.69;5004211;28;20029;-78
2023/07/05 01:07:13;;;;;;;19.20;17.58;;;;;;;18.85;100.00;95397.22;4989655;28;20038;-77
2023/07/05 01:09:38;;;;;;;20.45;18.23;;;;;;;18.72;100.00;95468.16;5003231;28;20030;-77
2023/07/05 01:12:22;;;;;;;20.33;18.30;;;;;;;18.78;100.00;95624.81;4988357;28;20034;-78
2023/07/05 01:14:59;;;;;;;19.48;16.60;;;;;;;18.74;100.00;95576.38;4988407;28;20022;-79
2023/07/05 01:17:45;;;;;;;21.80;16.60;;;;;;;18.54;100.00;95531.78;5004472;28;20051;-77
2023/07/05 01:20:48;;;;;;;19.38;17.10;;;;;;;18.61;100.00;95529.16;5004520;28;20112;-77
2023/07/05 01:23:32;;;;;;;18.40;16.63;;;;;;;18.66;100.00;95534.59;4988098;28;20022;-77
2023/07/05 01:26:23;;;;;;;19.08;17.17;;;;;;;18.53;100.00;95566.91;4987601;28;20033;-77
2023/07/05 01:29:09;;;;;;;17.60;15.90;;;;;;;18.57;100.00;95593.53;4988831;28;20027;-77
2023/07/05 01:31:54;;;;;;;21.30;19.25;;;;;;;18.37;100.00;95623.19;4987447;28;20450;-79
2023/07/05 01:34:22;;;;;;;18.63;17.02;;;;;;;18.44;100.00;95659.94;5004225;28;20463;-78
2023/07/05 01:36:49;;;;;;;18.60;17.02;;;;;;;18.52;100.00;95670.25;4988240;28;20026;-77
2023/07/05 01:39:14;;;;;;;18.80;17.15;;;;;;;18.50;100.00;95666.22;4987339;28;20042;-78
2023/07/05 01:41:40;;;;;;;19.92;18.13;;;;;;;18.48;100.00;95663.78;4987127;28;20030;-78
2023/07/05 01:44:06;;;;;;;23.02;18.13;;;;;;;18.46;100.00;95672.84;5002827;28;20038;-78
2023/07/05 01:46:59;;;;;;;19.80;18.10;;;;;;;18.35;100.00;95672.44;4988756;28;20154;-78
2023/07/05 01:49:40;;;;;;;20.60;18.60;;;;;;;18.19;100.00;95685.94;4986250;28;20499;-79
2023/07/05 01:52:34;;;;;;;22.45;20.15;;;;;;;18.08;100.00;95752.06;4987300;28;20057;-77
2023/07/05 01:55:27;;;;;;;20.63;18.92;;;;;;;18.24;100.00;95777.13;4988813;28;20069;-77
2023/07/05 01:57:58;;;;;;;20.08;18.48;;;;;;;18.26;100.00;95770.69;4985148;28;20485;-78
2023/07/05 02:00:25;;;;;;;18.70;17.10;;;;;;;18.24;100.00;95756.94;5003780;28;20026;-78
2023/07/05 02:03:02;;;;;;;18.38;16.67;;;;;;;18.30;100.00;95734.38;4986334;28;20466;-78
2023/07/05 02:05:29;;;;;;;19.05;17.10;;;;;;;18.42;100.00;95720.47;5002732;28;20491;-77
2023/07/05 02:07:56;;;;;;;19.42;17.63;;;;;;;18.47;100.00;95682.31;5003120;28;20480;-78
2023/07/05 02:10:22;;;;;;;20.15;18.52;;;;;;;18.27;100.00;95688.34;4987141;28;20037;-77
2023/07/05 02:12:47;;;;;;;22.92;20.92;;;;;;;18.18;100.00;95738.56;4988333;28;20031;-78
2023/07/05 02:15:13;;;;;;;19.13;17.38;;;;;;;18.30;100.00;95750.13;5002103;28;20085;-77
2023/07/05 02:17:39;;;;;;;19.58;17.63;;;;;;;18.40;100.00;95730.34;4986623;28;20080;-78
2023/07/05 02:20:06;;;;;;;17.45;15.93;;;;;;;18.58;100.00;95726.38;4987380;28;20019;-78
2023/07/05 02:22:31;;;;;;;16.38;14.95;;;;;;;18.69;100.00;95668.03;4986341;28;20389;-77
2023/07/05 02:24:56;;;;;;;16.52;15.20;;;;;;;18.90;100.00;95608.25;5002514;28;20028;-77
2023/07/05 02:27:22;;;;;;;17.38;15.63;;;;;;;18.76;100.00;95562.03;4985888;28;20046;-77
2023/07/05 02:29:48;;;;;;;19.48;16.40;;;;;;;18.74;100.00;95571.13;5003254;28;20022;-78
2023/07/05 02:32:13;;;;;;;17.10;15.57;;;;;;;18.65;100.00;95606.47;4986909;28;20026;-77
2023/07/05 02:34:40;;;;;;;17.85;16.23;;;;;;;18.52;100.00;95615.16;5003278;28;20038;-79
2023/07/05 02:37:10;;;;;;;16.60;14.93;;;;;;;18.60;100.00;95641.19;4985434;28;20030;-78
2023/07/05 02:39:36;;;;;;;18.27;16.67;;;;;;;18.55;100.00;95653.31;4988042;28;20038;-77
2023/07/05 02:42:02;;;;;;;19.00;16.20;;;;;;;18.35;100.00;95671.63;4984973;28;20044;-77
2023/07/05 02:44:28;;;;;;;16.27;14.80;;;;;;;18.34;100.00;95681.31;5001824;28;20041;-77
2023/07/05 02:46:54;;;;;;;18.60;16.88;;;;;;;18.24;100.00;95685.31;5002596;28;20035;-78
2023/07/05 02:49:19;;;;;;;18.48;16.88;;;;;;;18.42;100.00;95690.81;5001828;28;20026;-77
2023/07/05 02:51:45;;;;;;;18.80;16.50;;;;;;;18.32;100.00;95683.34;4987897;28;20122;-77
2023/07/05 02:54:10;;;;;;;18.17;16.52;;;;;;;18.32;100.00;95698.25;4986366;28;20141;-78
2023/07/05 02:56:36;;;;;;;18.17;16.58;;;;;;;18.31;100.00;95709.75;4986327;28;20030;-78
2023/07/05 02:59:01;;;;;;;18.25;16.58;;;;;;;18.29;100.00;95704.72;4985385;28;20026;-77
2023/07/05 03:01:27;;;;;;;18.90;17.15;;;;;;;18.39;100.00;95692.03;4987263;28;20105;-77
2023/07/05 03:03:53;;;;;;;17.67;16.08;;;;;;;18.18;100.00;95699.22;5002031;28;20084;-78
2023/07/05 03:06:19;;;;;;;17.05;15.43;;;;;;;18.24;100.00;95704.50;4985413;28;20471;-77
2023/07/05 03:08:44;;;;;;;17.30;15.73;;;;;;;18.15;100.00;95689.97;4987996;28;20027;-77
2023/07/05 03:11:10;;;;;;;18.02;15.48;;;;;;;18.14;100.00;95656.88;4986374;28;20026;-77
2023/07/05 03:13:36;;;;;;;15.32;13.93;;;;;;;18.21;100.00;95605.25;4987655;28;20030;-77
2023/07/05 03:16:02;;;;;;;19.77;14.25;;;;;;;18.09;100.00;95595.56;5001318;28;20022;-78
2023/07/05 03:18:28;;;;;;;16.42;14.82;;;;;;;18.05;100.00;95600.38;4987478;28;20073;-77
2023/07/05 03:20:54;;;;;;;19.83;14.70;;;;;;;18.20;100.00;95618.56;4985378;28;20070;-78
2023/07/05 03:23:20;;;;;;;14.88;13.40;;;;;;;18.07;100.00;95635.09;5001829;28;20529;-78
2023/07/05 03:26:12;;;;;;;15.75;14.35;;;;;;;18.18;100.00;95652.84;5002381;28;20397;-78
2023/07/05 03:28:38;;;;;;;15.80;14.32;;;;;;;18.27;100.00;95653.44;4983694;28;20136;-78
2023/07/05 03:31:12;;;;;;;16.30;14.60;;;;;;;18.33;100.00;95645.59;4987163;28;20479;-78
2023/07/05 03:33:39;;;;;;;14.52;13.10;;;;;;;18.55;100.00;95606.88;4986532;28;20034;-78
2023/07/05 03:36:15;;;;;;;15.00;13.15;;;;;;;19.35;100.00;95490.88;4986742;28;20037;-78
2023/07/05 03:38:41;;;;;;;14.43;12.43;;;;;;;20.52;100.00;95159.31;4986394;28;20026;-78
2023/07/05 03:41:11;;;;;;;16.15;13.00;;;;;;;20.90;100.00;95003.47;4986040;28;20033;-78
2023/07/05 03:43:37;;;;;;;12.15;9.55;;;;;;;21.60;100.00;94900.44;5002682;28;20169;-78
2023/07/05 03:46:05;;;;;;;15.48;10.43;;;;;;;21.98;100.00;94860.94;4984163;28;20069;-78
2023/07/05 03:48:33;;;;;;;11.10;10.15;;;;;;;22.68;100.00;94793.41;4986019;28;20026;-78
2023/07/05 03:50:59;;;;;;;10.55;9.60;;;;;;;22.85;100.00;94755.28;4985154;28;20038;-78
2023/07/05 03:53:25;;;;;;;10.52;9.63;;;;;;;22.88;100.00;94749.50;5002066;28;20031;-78
2023/07/05 03:55:51;;;;;;;8.95;8.18;;;;;;;23.32;100.00;94722.84;4990705;28;20121;-78
2023/07/05 03:58:17;;;;;;;9.35;8.60;;;;;;;23.21;100.00;94710.63;4989737;28;20527;-78
2023/07/05 04:00:42;;;;;;;9.00;7.53;;;;;;;23.43;100.00;94717.41;5006104;28;20121;-79
2023/07/05 04:03:08;;;;;;;9.38;8.55;;;;;;;23.91;100.00;94686.38;5004184;28;20034;-78
2023/07/05 04:05:34;;;;;;;9.30;8.60;;;;;;;24.21;100.00;94681.19;4990868;28;20113;-78
2023/07/05 04:08:00;;;;;;;8.68;7.88;;;;;;;24.38;100.00;94665.06;4989952;28;20494;-78
2023/07/05 04:10:25;;;;;;;8.18;7.47;;;;;;;24.72;100.00;94666.16;5005497;28;20106;-78
2023/07/05 04:12:51;;;;;;;8.57;7.97;;;;;;;25.14;100.00;94660.59;5004951;28;20089;-78
2023/07/05 04:15:16;;;;;;;8.30;7.70;;;;;;;25.64;100.00;94664.97;4989723;28;20084;-78
2023/07/05 04:17:42;;;;;;;9.60;8.70;;;;;;;25.38;100.00;94647.53;4989138;28;20077;-78
2023/07/05 04:20:08;;;;;;;9.73;8.75;;;;;;;25.84;100.00;94650.81;5004331;28;20430;-78
2023/07/05 04:22:38;;;;;;;9.00;8.40;;;;;;;26.30;100.00;94646.88;5005450;28;20018;-78
2023/07/05 04:25:04;;;;;;;9.10;8.00;;;;;;;26.10;100.00;94642.44;5004122;28;20033;-79
2023/07/05 04:27:29;;;;;;;9.52;8.93;;;;;;;26.09;100.00;94654.16;5408560;22;20786;-79
2023/07/05 04:29:55;;;;;;;9.77;8.88;;;;;;;26.27;100.00;94649.28;5023486;28;20025;-78
2023/07/05 04:32:20;;;;;;;12.02;7.85;;;;;;;26.64;100.00;94647.69;5026289;28;20426;-79
2023/07/05 04:34:46;;;;;;;8.82;8.10;;;;;;;27.11;100.00;94644.38;5025229;28;20026;-79
2023/07/05 04:37:11;;;;;;;8.65;8.07;;;;;;;27.51;100.00;94637.88;5009706;28;20026;-79
2023/07/05 04:39:37;;;;;;;8.85;8.07;;;;;;;27.77;100.00;94647.09;5024664;28;20037;-80
2023/07/05 04:42:03;;;;;;;7.82;7.32;;;;;;;28.04;100.00;94645.72;5026047;28;20029;-79
2023/07/05 04:44:29;;;;;;;10.00;7.90;;;;;;;28.37;100.00;94649.28;5024762;28;20068;-79
2023/07/05 04:46:54;;;;;;;8.73;7.85;;;;;;;28.77;100.00;94654.00;5011111;28;20054;-79
2023/07/05 04:49:20;;;;;;;9.02;8.43;;;;;;;29.35;100.00;94664.25;5025195;28;20038;-79
2023/07/05 04:51:46;;;;;;;8.40;7.60;;;;;;;29.51;100.00;94673.56;5010228;28;20022;-79
2023/07/05 04:54:13;;;;;;;8.93;8.03;;;;;;;29.40;100.00;94672.97;4993376;28;20116;-79
2023/07/05 04:56:38;;;;;;;8.20;7.63;;;;;;;29.52;100.00;94669.81;5024263;28;20359;-80
2023/07/05 04:59:03;;;;;;;7.60;7.10;;;;;;;29.22;100.00;94671.91;5025815;28;20109;-80
2023/07/05 05:01:29;;;;;;;7.90;6.45;;;;;;;29.62;100.00;94666.94;5024366;28;20084;-79
2023/07/05 05:03:54;;;;;;;7.30;6.72;;;;;;;29.62;100.00;94659.72;5025824;28;20421;-79
2023/07/05 05:06:20;;;;;;;6.90;6.50;;;;;;;30.23;95.59;94663.84;5008492;28;20124;-79
2023/07/05 05:08:45;;;;;;;6.95;6.35;;;;;;;30.75;91.80;94670.44;5025708;28;20469;-79
2023/07/05 05:11:11;;;;;;;6.78;6.30;;;;;;;31.03;90.70;94673.78;5025201;28;20022;-79
2023/07/05 05:13:37;;;;;;;9.88;6.88;;;;;;;31.40;84.14;94670.72;5008072;28;20522;-80
2023/07/05 05:16:03;;;;;;;10.10;7.27;;;;;;;31.90;82.29;94670.44;4992957;28;20487;-80
2023/07/05 05:18:30;;;;;;;7.32;6.63;;;;;;;32.80;71.58;94666.97;4991146;28;20053;-79
2023/07/05 05:20:56;;;;;;;7.25;6.82;;;;;;;32.67;73.61;94659.88;5009192;28;20416;-79
2023/07/05 05:23:22;;;;;;;7.38;6.78;;;;;;;32.89;74.93;94663.16;5007306;28;20046;-79
2023/07/05 05:25:48;;;;;;;6.87;6.37;;;;;;;33.32;72.64;94667.69;5010317;28;20076;-79
2023/07/05 05:28:14;;;;;;;7.82;6.90;;;;;;;33.96;62.28;94665.72;5023996;28;20446;-80
2023/07/05 05:30:43;;;;;;;9.63;6.40;;;;;;;34.21;66.41;94669.38;4991909;28;20414;-79
2023/07/05 05:33:08;;;;;;;6.60;6.10;;;;;;;34.17;67.04;94673.84;5008991;28;20028;-79
2023/07/05 05:35:35;;;;;;;6.67;5.70;;;;;;;35.20;59.75;94663.06;5007084;28;20026;-79
2023/07/05 05:38:02;;;;;;;6.47;5.97;;;;;;;35.64;58.46;94671.50;5008943;28;20014;-79
2023/07/05 05:40:27;;;;;;;6.43;5.95;;;;;;;36.09;54.47;94668.75;5006943;28;20026;-79
2023/07/05 05:42:53;;;;;;;6.20;5.63;;;;;;;36.64;53.09;94668.88;5009045;28;20360;-79
2023/07/05 05:45:18;;;;;;;7.07;6.43;;;;;;;36.47;52.27;94671.84;5007200;28;20022;-79
2023/07/05 05:47:44;;;;;;;6.90;6.30;;;;;;;36.78;52.53;94677.38;5024762;28;20041;-79
2023/07/05 05:50:09;;;;;;;7.13;6.47;;;;;;;36.82;49.60;94669.38;5010865;28;20057;-79
2023/07/05 05:52:35;;;;;;;6.60;5.80;;;;;;;36.81;51.91;94674.00;5008551;28;20021;-79
2023/07/05 05:55:02;;;;;;;7.30;6.60;;;;;;;37.75;49.60;94673.44;5008456;28;20240;-79
2023/07/05 05:57:27;;;;;;;6.07;5.68;;;;;;;36.54;48.87;94680.16;5006463;28;20438;-79
2023/07/05 05:59:53;;;;;;;7.13;5.90;;;;;;;37.85;47.78;94678.34;5009778;28;20616;-80
2023/07/05 06:02:18;;;;;;;5.63;5.23;;;;;;;38.54;46.34;94683.06;5007934;28;20034;-78
2023/07/05 06:04:44;;;;;;;5.50;5.20;;;;;;;38.29;43.33;94681.69;5009549;28;20498;-76
2023/07/05 06:07:10;;;;;;;5.80;5.40;;;;;;;38.46;44.80;94684.06;5008956;28;20030;-77
2023/07/05 06:09:39;;;;;;;6.32;5.80;;;;;;;37.64;45.84;94681.28;5008707;28;20073;-77
2023/07/05 06:12:05;;;;;;;4.95;4.65;;;;;;;39.13;41.75;94685.47;5009573;28;20022;-77
2023/07/05 06:14:31;;;;;;;5.43;5.03;;;;;;;38.75;41.17;94680.81;5006201;28;20041;-77
2023/07/05 06:16:57;;;;;;;5.87;5.37;;;;;;;39.19;43.12;94683.25;5008163;28;20041;-79
2023/07/05 06:19:22;;;;;;;6.28;5.88;;;;;;;39.57;42.39;94688.63;5007942;28;20568;-81
2023/07/05 06:21:48;;;;;;;5.93;5.43;;;;;;;39.09;43.94;94675.69;5009215;28;20042;-79
2023/07/05 06:24:13;;;;;;;6.05;5.55;;;;;;;39.06;42.21;94684.53;5008382;28;20097;-80
2023/07/05 06:26:39;;;;;;;6.65;6.22;;;;;;;38.62;42.68;94676.66;5007517;28;20046;-80
2023/07/05 06:29:04;;;;;;;7.10;6.70;;;;;;;38.76;43.08;94674.25;5007042;28;20037;-85
2023/07/05 06:31:33;;;;;;;8.63;7.07;;;;;;;37.39;46.56;94672.53;5006625;28;20423;-80
2023/07/05 06:33:59;;;;;;;8.45;7.45;;;;;;;33.74;60.98;94671.38;5009434;28;20100;-80
2023/07/05 06:36:25;;;;;;;7.40;6.90;;;;;;;33.58;60.66;94668.41;5006085;28;20109;-78
2023/07/05 06:38:51;;;;;;;8.15;7.45;;;;;;;32.84;67.37;94665.22;5008887;28;20548;-76
2023/07/05 06:41:16;;;;;;;7.28;6.65;;;;;;;33.06;69.71;94658.88;5006133;28;20038;-76
2023/07/05 06:43:41;;;;;;;6.43;5.93;;;;;;;33.74;64.26;94658.72;5007602;28;20026;-80
2023/07/05 06:46:07;;;;;;;6.85;6.35;;;;;;;35.60;56.33;94663.31;5006769;28;20030;-80
2023/07/05 06:48:34;;;;;;;6.72;6.13;;;;;;;38.19;46.02;94660.59;5006983;28;20143;-82
2023/07/05 06:50:59;;;;;;;7.35;6.75;;;;;;;37.49;47.19;94660.44;5007605;28;20487;-79
2023/07/05 06:53:25;;;;;;;10.23;7.35;;;;;;;36.66;48.73;94647.72;5007224;28;20022;-79
2023/07/05 06:55:51;;;;;;;7.35;6.80;;;;;;;35.33;54.18;94661.19;5008640;28;20109;-79
2023/07/05 06:58:17;;;;;;;7.88;7.30;;;;;;;33.94;56.75;94656.41;5005771;28;20033;-82
2023/07/05 07:00:45;;;;;;;8.27;7.57;;;;;;;33.62;60.83;94660.53;5007311;28;20504;-80
2023/07/05 07:03:11;;;;;;;7.50;7.00;;;;;;;33.42;62.79;94659.28;5006170;28;20113;-79
2023/07/05 07:05:36;;;;;;;7.82;7.07;;;;;;;32.99;63.63;94653.19;5008078;28;20578;-81
2023/07/05 07:08:02;;;;;;;7.57;6.57;;;;;;;33.08;64.84;94656.66;5006741;28;20109;-80
2023/07/05 07:10:27;;;;;;;7.53;6.63;;;;;;;32.85;64.90;94662.22;5006243;28;20403;-80
2023/07/05 07:12:53;;;;;;;8.07;6.70;;;;;;;35.27;56.78;94657.13;5008359;28;20029;-80
2023/07/05 07:15:18;;;;;;;7.50;6.88;;;;;;;36.35;54.11;94648.31;5005946;28;20117;-81
2023/07/05 07:17:45;;;;;;;7.88;7.10;;;;;;;33.02;64.94;94652.56;5007076;28;20049;-79
2023/07/05 07:20:11;;;;;;;7.80;6.90;;;;;;;32.04;74.53;94644.34;5005573;28;20068;-79
2023/07/05 07:22:36;;;;;;;8.18;7.45;;;;;;;31.52;74.74;94646.84;5008580;28;20447;-79
2023/07/05 07:25:02;;;;;;;8.60;7.88;;;;;;;31.75;72.47;94644.88;5005896;28;20041;-80
2023/07/05 07:27:27;;;;;;;7.82;7.10;;;;;;;30.81;80.33;94642.47;5006212;28;20033;-80
2023/07/05 07:29:53;;;;;;;8.50;7.90;;;;;;;31.32;73.65;94652.69;5011159;28;20049;-80
2023/07/05 07:32:25;;;;;;;8.82;7.97;;;;;;;30.27;81.69;94646.13;5010887;28;20034;-83
2023/07/05 07:34:54;;;;;;;8.77;7.88;;;;;;;30.88;77.32;94647.38;5012691;28;20022;-81
2023/07/05 07:48:35;;;;;;;8.15;7.38;;;;;;;31.68;78.23;94631.94;5106568;27;20410;-79
2023/07/05 07:51:00;;;;;;;7.13;6.68;;;;;;;31.79;84.36;94627.84;5106503;28;20040;-79
2023/07/05 07:53:26;;;;;;;7.97;7.25;;;;;;;32.11;74.94;94633.94;5104629;28;20496;-80
2023/07/05 07:55:51;;;;;;;8.20;7.55;;;;;;;31.90;76.37;94640.97;5088326;28;20480;-79
2023/07/05 07:58:17;;;;;;;8.18;7.22;;;;;;;32.09;78.24;94631.56;5087481;28;20031;-79
2023/07/05 08:00:42;;;;;;;8.02;7.32;;;;;;;32.09;78.66;94638.81;5105128;28;20056;-79
2023/07/05 08:03:08;;;;;;;8.02;7.32;;;;;;;32.23;75.78;94629.53;5104319;28;20023;-79
2023/07/05 08:05:33;;;;;;;7.60;7.10;;;;;;;31.88;76.93;94635.13;5104953;28;20024;-78
2023/07/05 09:50:35;;;;;;;9.70;7.55;;;;;;;32.37;76.87;94554.25;5084147;28;20081;-79
2023/07/05 09:53:21;;;;;;;8.40;7.70;;;;;;;30.88;75.95;94551.84;5089623;28;20491;-80
2023/07/05 09:56:10;;;;;;;7.65;6.75;;;;;;;30.84;77.90;94551.66;5071259;28;20043;-80
2023/07/05 09:58:37;;;;;;;8.32;7.18;;;;;;;30.81;78.99;94546.13;5072504;28;20055;-78
2023/07/05 10:01:08;;;;;;;8.18;7.38;;;;;;;30.70;79.13;94545.59;5088460;28;20099;-80
2023/07/05 10:03:49;;;;;;;7.65;7.07;;;;;;;30.79;81.90;94534.97;5071529;28;20535;-78
2023/07/05 10:06:18;;;;;;;7.82;7.22;;;;;;;30.72;82.43;94542.63;5089547;28;20071;-80
2023/07/05 10:08:50;;;;;;;7.45;6.70;;;;;;;30.74;80.52;94535.88;5088108;28;20024;-86
2023/07/05 10:11:26;;;;;;;7.78;7.10;;;;;;;30.38;83.70;94543.16;5089345;28;20061;-78
2023/07/05 10:14:23;;;;;;;7.38;6.72;;;;;;;30.31;82.79;94538.25;5071788;28;20050;-79
2023/07/05 10:16:54;;;;;;;6.45;5.90;;;;;;;30.06;86.15;94538.06;5084763;28;20048;-78
2023/07/05 10:19:28;;;;;;;8.15;7.35;;;;;;;29.44;89.52;94537.81;5089141;28;20024;-79
2023/07/05 10:22:14;;;;;;;7.85;7.15;;;;;;;29.00;86.35;94541.03;5087796;28;20035;-81
2023/07/05 10:24:48;;;;;;;7.55;6.95;;;;;;;29.47;88.87;94544.41;5071325;28;20103;-77
2023/07/05 10:27:32;;;;;;;7.43;6.75;;;;;;;29.47;90.45;94534.53;5072073;28;20028;-79
2023/07/05 10:30:13;;;;;;;7.53;6.82;;;;;;;29.48;91.69;94535.28;5088870;28;20493;-79
2023/07/05 10:32:39;;;;;;;6.88;6.38;;;;;;;29.45;98.01;94539.38;5088882;28;20081;-80
2023/07/05 10:35:27;;;;;;;7.35;6.85;;;;;;;29.13;100.00;94550.91;5071365;28;20518;-78
2023/07/05 10:37:53;;;;;;;7.65;7.15;;;;;;;28.88;100.00;94547.94;5087699;28;20508;-78
2023/07/05 10:40:21;;;;;;;7.30;6.90;;;;;;;28.79;100.00;94547.84;5071790;28;20081;-78
2023/07/05 10:42:53;;;;;;;7.05;6.63;;;;;;;28.66;100.00;94541.41;5087362;28;20447;-78
2023/07/05 10:45:20;;;;;;;7.15;6.53;;;;;;;28.36;100.00;94536.53;5088717;28;20341;-78
2023/07/05 10:47:52;;;;;;;8.32;7.72;;;;;;;28.44;100.00;94545.75;5087151;28;20028;-78
2023/07/05 10:50:23;;;;;;;7.88;7.03;;;;;;;28.15;100.00;94533.44;5088300;28;20047;-78
2023/07/05 10:52:56;;;;;;;7.13;6.63;;;;;;;28.10;100.00;94541.47;5088393;28;20043;-78
2023/07/05 10:55:25;;;;;;;6.70;6.18;;;;;;;27.99;100.00;94532.03;5087541;28;20024;-82
2023/07/05 10:58:06;;;;;;;13.32;7.20;;;;;;;27.87;100.00;94541.56;5071457;28;20028;-83
2023/07/05 11:00:39;;;;;;;7.95;6.93;;;;;;;27.50;100.00;94548.44;5087427;28;20165;-78
2023/07/05 11:03:23;;;;;;;7.47;6.88;;;;;;;27.36;100.00;94566.13;5088176;28;20111;-78
2023/07/05 11:05:51;;;;;;;7.57;6.97;;;;;;;27.08;100.00;94567.78;5071641;28;20032;-81
2023/07/05 11:08:25;;;;;;;7.73;7.03;;;;;;;27.21;100.00;94553.81;5087427;28;20020;-78
2023/07/05 11:10:53;;;;;;;10.65;7.57;;;;;;;26.18;100.00;94587.97;5071023;28;20028;-84
2023/07/05 13:06:39;;;;;;;7.50;6.78;;;;;;;18.98;100.00;96515.81;5126200;27;20402;-77
2023/07/05 13:09:05;;;;;;;6.32;5.75;;;;;;;18.74;100.00;96514.31;5107632;28;20037;-78
2023/07/05 13:11:30;;;;;;;7.20;6.60;;;;;;;19.20;100.00;96529.81;5107035;28;20023;-78
2023/07/05 13:14:01;;;;;;;7.07;6.47;;;;;;;19.36;100.00;96540.13;5126480;28;20019;-78
2023/07/05 13:16:27;;;;;;;5.70;5.20;;;;;;;19.14;100.00;96531.34;5106153;28;20051;-77
2023/07/05 13:18:59;;;;;;;6.50;5.90;;;;;;;19.63;100.00;96560.44;5126280;28;20034;-78
2023/07/05 13:21:36;;;;;;;6.72;6.13;;;;;;;19.73;100.00;96571.47;5105975;28;20034;-79
2023/07/05 13:24:01;;;;;;;7.38;6.78;;;;;;;19.70;100.00;96563.13;5107678;28;20102;-80
2023/07/05 13:26:32;;;;;;;7.10;6.50;;;;;;;19.76;100.00;96568.47;5107141;28;20028;-83
2023/07/05 13:29:00;;;;;;;7.70;7.00;;;;;;;19.95;100.00;96588.06;5089773;28;20023;-79
2023/07/05 13:31:26;;;;;;;7.72;7.13;;;;;;;20.09;100.00;96578.47;5107493;28;20023;-81
2023/07/05 13:33:58;;;;;;;10.45;8.05;;;;;;;20.22;100.00;96589.94;5088832;28;20023;-79
2023/07/05 13:36:27;;;;;;;6.82;6.32;;;;;;;20.08;100.00;96572.41;5107599;28;20020;-80
2023/07/05 13:38:53;;;;;;;7.70;7.10;;;;;;;19.91;100.00;96544.72;5106209;28;20488;-82
2023/07/05 13:41:28;;;;;;;7.35;6.78;;;;;;;20.25;100.00;96557.16;5107225;28;20057;-85
2023/07/05 13:43:54;;;;;;;9.82;7.70;;;;;;;20.50;100.00;96575.00;5107400;28;20041;-84
2023/07/05 13:46:20;;;;;;;7.90;7.25;;;;;;;20.58;100.00;96563.47;5105835;28;20533;-83
2023/07/05 13:48:47;;;;;;;8.48;7.80;;;;;;;20.55;100.00;96561.22;5125506;28;20019;-82
2023/07/05 13:51:35;;;;;;;8.05;7.45;;;;;;;20.54;100.00;96554.38;5105781;28;20503;-81
2023/07/05 13:54:01;;;;;;;8.77;8.15;;;;;;;20.49;100.00;96554.09;5107888;28;20027;-81
2023/07/05 13:56:28;;;;;;;9.90;9.02;;;;;;;20.35;100.00;96511.09;5106271;28;20476;-82
2023/07/05 13:58:54;;;;;;;10.10;9.30;;;;;;;20.16;100.00;96456.50;5124706;28;20019;-82
2023/07/05 14:01:20;;;;;;;10.02;9.02;;;;;;;20.16;100.00;96456.50;5090080;28;20102;-82
2023/07/05 14:03:48;;;;;;;10.40;9.70;;;;;;;20.20;100.00;96439.28;5088214;28;20583;-82
2023/07/05 14:06:19;;;;;;;12.57;11.68;;;;;;;20.75;100.00;96521.84;5080480;28;20075;-83
2023/07/05 14:08:45;;;;;;;13.95;12.02;;;;;;;20.75;100.00;96540.28;5051240;28;20032;-82
2023/07/05 14:11:16;;;;;;;13.52;12.35;;;;;;;20.86;100.00;96556.38;5069890;28;20020;-83
2023/07/05 14:13:42;;;;;;;11.02;9.82;;;;;;;20.63;100.00;96553.19;5068836;28;20031;-82
2023/07/05 14:16:11;;;;;;;11.55;10.55;;;;;;;20.62;100.00;96535.75;5069099;28;20108;-83
2023/07/05 14:18:37;;;;;;;13.98;9.80;;;;;;;20.50;100.00;96522.34;5053229;28;20021;-84
2023/07/05 14:21:04;;;;;;;9.75;9.00;;;;;;;20.46;100.00;96510.56;5068591;28;20784;-84
2023/07/05 14:23:30;;;;;;;11.60;10.48;;;;;;;20.57;100.00;96524.19;5070254;28;20047;-83
2023/07/05 14:25:55;;;;;;;12.82;11.63;;;;;;;20.72;100.00;96546.75;5068568;28;20529;-83
2023/07/05 14:28:21;;;;;;;12.80;11.75;;;;;;;21.00;100.00;96625.75;5070563;28;20481;-84
2023/07/05 14:30:48;;;;;;;16.67;14.98;;;;;;;21.02;100.00;96642.19;5069014;28;20470;-84
2023/07/05 14:33:16;;;;;;;14.30;13.00;;;;;;;20.85;100.00;96644.31;5053016;28;20063;-82
2023/07/05 14:35:42;;;;;;;15.60;13.95;;;;;;;20.68;100.00;96642.19;5053200;28;20569;-82
2023/07/05 14:38:08;;;;;;;13.63;12.48;;;;;;;20.87;100.00;96630.97;5051842;28;20127;-81
2023/07/05 14:40:35;;;;;;;12.98;11.15;;;;;;;21.00;100.00;96620.47;5069660;28;20032;-82
2023/07/05 14:43:00;;;;;;;12.55;11.55;;;;;;;21.04;100.00;96624.34;5051734;28;20020;-82
2023/07/05 14:45:28;;;;;;;11.65;10.43;;;;;;;20.88;100.00;96616.75;5069940;28;20025;-83
2023/07/05 14:47:56;;;;;;;11.75;10.60;;;;;;;20.99;100.00;96613.59;5068676;28;20442;-82
2023/07/05 14:50:23;;;;;;;11.98;10.98;;;;;;;21.16;100.00;96635.22;5052868;28;20062;-82
2023/07/05 14:52:49;;;;;;;12.93;11.57;;;;;;;21.33;100.00;96644.41;5052300;28;20020;-83
2023/07/05 14:55:21;;;;;;;14.68;13.18;;;;;;;21.29;100.00;96645.81;5068085;28;20107;-81
2023/07/05 14:57:47;;;;;;;13.90;12.52;;;;;;;21.62;100.00;96672.34;5052506;28;20557;-80
2023/07/05 15:00:15;;;;;;;12.48;11.45;;;;;;;21.53;100.00;96674.34;5068899;28;20119;-80
2023/07/05 15:02:43;;;;;;;9.00;8.40;;;;;;;21.39;100.00;96628.63;5052082;28;20025;-83
2023/07/05 15:05:09;;;;;;;7.63;6.95;;;;;;;20.98;100.00;96395.91;5066929;28;20051;-83
2023/07/05 15:07:35;;;;;;;8.43;7.63;;;;;;;21.21;100.00;96146.00;5092114;28;20024;-81
2023/07/05 15:10:00;;;;;;;6.90;6.40;;;;;;;21.10;100.00;95877.84;5091716;28;20553;-82
2023/07/05 15:12:26;;;;;;;8.32;7.72;;;;;;;21.30;100.00;95933.06;5108121;28;20031;-81
2023/07/05 15:14:51;;;;;;;7.80;7.25;;;;;;;21.50;100.00;96095.38;5092097;28;20118;-83